Three Oaks, Michigan
Current Conditions -  °F | °C
As of 7:15 PM on Thursday 27 Nov 2014 (Local Time) from KMGC Reporting Station
Light Snow Light Snow  
Wind Chill: 17°   Ceiling: 2500
Heat Index: 27°   Visibility: 10mi
Dew Point: 14°   Wind: 10mph
Humidity: 59%   Direction: 290°WNW
Pressure: 30.39"   Gusts: NA
Location:  41.8°N, 86.61°W
Report Text: KMGC 280015Z AUTO 29009KT 10SM -SN BKN025 OVC031 M03/M10 A3039 RMK AO2
Loading
Personal Weather Stations






























Interactive Weather Map New forecast layout! Learn more

10-Day Weather Forecast

Advertisements
Track Severe Weather on mobile